Time;durP1;ratioP1;P1;durP2;ratioP2;P2;SDS_P1;SDS_P2;PMS_P1;PMS_P2;Temp;Humidity;BMP_temperature;BMP_pressure;BME280_temperature;BME280_humidity;BME280_pressure;Samples;Min_cycle;Max_cycle;Signal;HPM_P1;HPM_P2
2023/08/11 00:01:29;;;;;;;2.38;2.17;;;14.00;99.90;;;;;;5114929;27;20039;-36
2023/08/11 00:03:55;;;;;;;3.25;2.13;;;14.00;99.90;;;;;;5077669;28;20017;-37
2023/08/11 00:06:21;;;;;;;3.22;1.70;;;13.90;99.90;;;;;;5080296;28;20036;-38
2023/08/11 00:08:47;;;;;;;1.60;1.50;;;13.80;99.90;;;;;;5077410;28;20389;-37
2023/08/11 00:11:12;;;;;;;2.53;1.40;;;13.70;99.90;;;;;;5083364;28;20024;-36
2023/08/11 00:13:38;;;;;;;3.88;1.20;;;13.70;99.90;;;;;;5079055;28;20040;-30
2023/08/11 00:16:04;;;;;;;3.10;1.85;;;13.80;99.90;;;;;;5064105;28;20138;-34
2023/08/11 00:18:30;;;;;;;2.75;2.25;;;13.80;99.90;;;;;;5079459;28;20028;-34
2023/08/11 00:20:56;;;;;;;1.88;1.77;;;13.80;99.90;;;;;;5075860;28;20474;-30
2023/08/11 00:23:22;;;;;;;1.60;1.50;;;13.70;99.90;;;;;;5079257;28;20035;-41
2023/08/11 00:25:48;;;;;;;1.60;1.35;;;13.60;99.90;;;;;;5077927;28;20021;-42
2023/08/11 00:28:13;;;;;;;3.88;2.60;;;13.50;99.90;;;;;;5077844;28;20028;-39
2023/08/11 00:30:39;;;;;;;3.13;2.17;;;13.60;99.90;;;;;;5072925;28;20037;-41
2023/08/11 00:33:05;;;;;;;3.53;2.55;;;13.60;99.90;;;;;;5070140;28;20023;-41
2023/08/11 00:35:31;;;;;;;3.97;2.60;;;13.60;99.90;;;;;;5070776;28;20486;-39
2023/08/11 00:37:57;;;;;;;3.70;2.72;;;13.50;99.90;;;;;;5096147;28;20388;-42
2023/08/11 00:40:23;;;;;;;3.22;2.92;;;13.30;99.90;;;;;;5098795;28;20103;-38
2023/08/11 00:42:51;;;;;;;3.75;2.63;;;13.40;99.90;;;;;;5094432;28;20078;-41
2023/08/11 00:45:18;;;;;;;;;;;13.40;99.90;;;;;;5095673;28;20361;-38
2023/08/11 00:47:45;;;;;;;3.15;2.65;;;13.20;99.90;;;;;;5096180;28;19933;-38
2023/08/11 00:50:11;;;;;;;5.15;2.70;;;13.20;99.90;;;;;;5099203;28;20108;-41
2023/08/11 00:52:38;;;;;;;3.65;2.78;;;13.20;99.90;;;;;;5093360;28;20051;-41
2023/08/11 00:55:05;;;;;;;2.40;2.20;;;13.00;99.90;;;;;;5097650;28;20036;-36
2023/08/11 00:57:31;;;;;;;2.20;2.00;;;13.00;99.90;;;;;;5095554;28;20062;-36
2023/08/11 00:59:59;;;;;;;1.30;1.27;;;12.80;99.90;;;;;;5098937;28;20024;-41
2023/08/11 01:02:24;;;;;;;2.30;1.90;;;12.70;99.90;;;;;;5091664;28;20404;-38
2023/08/11 01:04:50;;;;;;;2.30;2.10;;;12.90;99.90;;;;;;5097985;28;20035;-41
2023/08/11 01:07:38;;;;;;;3.95;1.88;;;12.90;99.90;;;;;;5085343;28;20035;-40
2023/08/11 01:10:13;;;;;;;2.63;1.95;;;12.90;99.90;;;;;;5080349;28;20035;-39
2023/08/11 01:12:58;;;;;;;2.83;2.05;;;12.90;99.90;;;;;;5083132;28;20481;-41
2023/08/11 01:15:29;;;;;;;2.90;2.60;;;12.80;99.90;;;;;;5075724;28;20025;-36
2023/08/11 01:17:56;;;;;;;6.80;2.58;;;12.90;99.90;;;;;;5077382;28;20052;-40
2023/08/11 01:20:23;;;;;;;3.35;2.33;;;12.80;99.90;;;;;;5078404;28;20780;-38
2023/08/11 01:22:54;;;;;;;4.20;2.28;;;12.70;99.90;;;;;;5078875;28;20020;-37
2023/08/11 01:25:21;;;;;;;5.68;2.53;;;12.80;99.90;;;;;;5082717;28;20041;-41
2023/08/11 01:27:57;;;;;;;3.78;2.42;;;12.80;99.90;;;;;;5081841;28;20036;-41
2023/08/11 01:30:23;;;;;;;2.75;2.30;;;12.70;99.90;;;;;;5086402;28;20028;-40
2023/08/11 01:32:51;;;;;;;3.47;2.35;;;12.70;99.90;;;;;;5082230;28;20044;-33
2023/08/11 01:35:18;;;;;;;3.42;2.38;;;12.80;99.90;;;;;;5082608;28;20115;-32
2023/08/11 01:37:44;;;;;;;2.95;2.58;;;12.80;99.90;;;;;;5085466;28;20493;-32
2023/08/11 01:40:10;;;;;;;3.75;2.40;;;12.80;99.90;;;;;;5076661;28;20031;-35
2023/08/11 01:42:43;;;;;;;2.92;2.50;;;12.70;99.90;;;;;;5074508;28;20125;-34
2023/08/11 01:45:11;;;;;;;2.80;2.40;;;12.80;99.90;;;;;;5077035;28;20032;-33
2023/08/11 01:47:39;;;;;;;3.77;3.23;;;12.70;99.90;;;;;;5083687;28;20023;-34
2023/08/11 01:50:07;;;;;;;3.83;2.63;;;12.60;99.90;;;;;;5086508;28;20031;-32
2023/08/11 01:52:39;;;;;;;5.13;2.83;;;12.50;99.90;;;;;;5079390;28;20067;-33
2023/08/11 01:55:06;;;;;;;3.80;2.85;;;12.40;99.90;;;;;;5080508;28;20040;-33
2023/08/11 01:57:33;;;;;;;2.83;2.55;;;12.50;99.90;;;;;;5077708;28;20074;-34
2023/08/11 01:59:58;;;;;;;4.05;2.42;;;12.40;99.90;;;;;;5081047;28;20033;-34
2023/08/11 02:02:24;;;;;;;4.38;2.47;;;12.40;99.90;;;;;;5076531;28;20366;-35
2023/08/11 02:04:49;;;;;;;3.15;2.67;;;12.40;99.90;;;;;;5082138;28;20032;-32
2023/08/11 02:07:15;;;;;;;4.68;2.70;;;12.50;99.90;;;;;;5079328;28;20085;-33
2023/08/11 02:09:41;;;;;;;3.58;2.38;;;12.40;99.90;;;;;;5082630;28;20044;-34
2023/08/11 02:12:07;;;;;;;3.13;2.83;;;12.40;99.90;;;;;;5079016;28;20029;-33
2023/08/11 02:14:33;;;;;;;4.10;2.67;;;12.50;99.90;;;;;;5080554;28;20117;-34
2023/08/11 02:16:58;;;;;;;3.00;2.70;;;12.50;99.90;;;;;;5085228;28;20093;-34
2023/08/11 02:19:24;;;;;;;4.53;2.80;;;12.50;99.90;;;;;;5079980;28;20034;-33
2023/08/11 02:21:50;;;;;;;2.35;2.20;;;12.50;99.90;;;;;;5082917;28;20017;-35
2023/08/11 02:24:15;;;;;;;3.92;2.53;;;12.30;99.90;;;;;;5081224;28;20032;-38
2023/08/11 02:26:41;;;;;;;6.18;2.88;;;12.30;99.90;;;;;;5063474;28;20043;-33
2023/08/11 02:29:07;;;;;;;2.47;2.28;;;12.30;99.90;;;;;;5079840;28;20363;-34
2023/08/11 02:31:33;;;;;;;3.50;2.20;;;12.30;99.90;;;;;;5084315;28;20032;-36
2023/08/11 02:33:59;;;;;;;5.13;2.25;;;12.30;99.90;;;;;;5078309;28;20165;-42
2023/08/11 02:36:24;;;;;;;3.20;2.42;;;12.40;99.90;;;;;;5081413;28;20458;-38
2023/08/11 02:38:51;;;;;;;2.53;2.33;;;12.30;99.90;;;;;;5065159;28;20035;-39
2023/08/11 02:41:16;;;;;;;2.80;2.60;;;12.20;99.90;;;;;;5079753;28;20024;-41
2023/08/11 02:43:42;;;;;;;3.28;2.97;;;12.20;99.90;;;;;;5080642;28;20039;-32
2023/08/11 02:46:07;;;;;;;2.90;2.60;;;12.20;99.90;;;;;;5079806;28;20020;-32
2023/08/11 02:48:38;;;;;;;2.83;2.47;;;12.10;99.90;;;;;;5079917;28;20024;-33
2023/08/11 02:51:04;;;;;;;5.68;2.50;;;12.10;99.90;;;;;;5077942;28;20028;-36
2023/08/11 02:53:30;;;;;;;4.05;2.60;;;12.20;99.90;;;;;;5082747;28;20039;-34
2023/08/11 02:55:56;;;;;;;6.03;2.50;;;12.20;99.90;;;;;;5081057;28;20104;-32
2023/08/11 02:58:21;;;;;;;2.55;2.35;;;12.00;99.90;;;;;;5079862;28;20027;-33
2023/08/11 03:00:48;;;;;;;4.43;2.60;;;11.80;99.90;;;;;;5083561;28;20024;-32
2023/08/11 03:03:14;;;;;;;3.95;2.60;;;11.80;99.90;;;;;;5082763;28;20501;-38
2023/08/11 03:05:41;;;;;;;2.30;2.10;;;11.90;99.90;;;;;;5065370;28;20036;-36
2023/08/11 03:08:07;;;;;;;3.10;2.30;;;11.90;99.90;;;;;;5083611;28;20028;-34
2023/08/11 03:10:33;;;;;;;3.03;2.67;;;12.00;99.90;;;;;;5078772;28;20396;-33
2023/08/11 03:12:58;;;;;;;2.40;2.20;;;12.00;99.90;;;;;;5078656;28;20038;-34
2023/08/11 03:15:24;;;;;;;3.35;2.28;;;12.10;99.90;;;;;;5077976;28;20028;-33
2023/08/11 03:17:50;;;;;;;3.20;2.55;;;12.10;99.90;;;;;;5087217;28;20031;-33
2023/08/11 03:20:16;;;;;;;2.20;2.00;;;12.10;99.90;;;;;;5083570;28;20028;-32
2023/08/11 03:22:45;;;;;;;2.13;1.95;;;12.10;99.90;;;;;;5081618;28;20028;-33
2023/08/11 03:25:11;;;;;;;2.22;2.00;;;12.00;99.90;;;;;;5084832;28;20738;-33
2023/08/11 03:27:41;;;;;;;4.25;2.60;;;12.00;99.90;;;;;;5078647;28;20029;-32
2023/08/11 03:30:11;;;;;;;2.67;2.47;;;12.00;99.90;;;;;;5075215;28;20030;-33
2023/08/11 03:32:40;;;;;;;2.95;2.65;;;11.90;99.90;;;;;;5077852;28;20036;-32
2023/08/11 03:35:06;;;;;;;3.97;2.70;;;11.90;99.90;;;;;;5076872;28;20236;-33
2023/08/11 03:37:33;;;;;;;3.08;2.47;;;12.00;99.90;;;;;;5075282;28;20075;-33
2023/08/11 03:39:59;;;;;;;2.65;2.40;;;12.00;99.90;;;;;;5076492;28;20024;-33
2023/08/11 03:42:24;;;;;;;3.03;2.40;;;12.10;99.90;;;;;;5080479;28;20077;-33
2023/08/11 03:44:51;;;;;;;3.83;2.67;;;12.10;99.90;;;;;;5079521;28;20501;-33
2023/08/11 03:47:17;;;;;;;4.70;2.53;;;12.00;99.90;;;;;;5081523;28;20032;-33
2023/08/11 03:49:45;;;;;;;2.40;2.20;;;12.00;99.90;;;;;;5082950;28;20039;-33
2023/08/11 03:52:11;;;;;;;2.17;1.97;;;11.90;99.90;;;;;;5081640;28;20370;-34
2023/08/11 03:54:37;;;;;;;3.78;2.70;;;11.80;99.90;;;;;;5084731;28;20751;-33
2023/08/11 03:57:03;;;;;;;2.75;2.35;;;11.80;99.90;;;;;;5079976;28;20032;-35
2023/08/11 03:59:28;;;;;;;2.35;2.10;;;11.80;99.90;;;;;;5082620;28;20047;-32
2023/08/11 04:01:54;;;;;;;2.35;2.15;;;11.80;99.90;;;;;;5083408;28;20042;-33
2023/08/11 04:04:20;;;;;;;2.10;1.90;;;11.80;99.90;;;;;;5079423;28;20029;-33
2023/08/11 04:06:45;;;;;;;2.63;2.25;;;11.80;99.90;;;;;;5083021;28;20738;-33
2023/08/11 04:09:11;;;;;;;2.45;2.25;;;11.80;99.90;;;;;;5080671;28;20032;-33
2023/08/11 04:11:36;;;;;;;2.13;1.98;;;11.80;99.90;;;;;;5078964;28;20032;-33
2023/08/11 04:14:02;;;;;;;2.85;2.33;;;11.80;99.90;;;;;;5078977;28;20099;-34
2023/08/11 04:16:28;;;;;;;4.43;1.90;;;11.70;99.90;;;;;;5083117;28;20420;-34
2023/08/11 04:18:53;;;;;;;2.60;2.40;;;11.70;99.90;;;;;;5082106;28;20031;-35
2023/08/11 04:21:19;;;;;;;2.67;1.80;;;11.70;99.90;;;;;;5061890;28;20035;-33
2023/08/11 04:23:45;;;;;;;3.13;2.30;;;11.60;99.90;;;;;;5076101;28;20393;-32
2023/08/11 04:26:10;;;;;;;4.18;2.60;;;11.50;99.90;;;;;;5082435;28;20036;-32
2023/08/11 04:28:38;;;;;;;2.88;2.67;;;11.60;99.90;;;;;;5082249;28;20043;-35
2023/08/11 04:31:06;;;;;;;3.17;2.88;;;11.60;99.90;;;;;;5080390;28;20110;-34
2023/08/11 04:33:32;;;;;;;4.20;2.70;;;11.70;99.90;;;;;;5083318;28;20548;-34
2023/08/11 04:35:58;;;;;;;4.88;2.60;;;11.70;99.90;;;;;;5080818;28;20313;-33
2023/08/11 04:38:24;;;;;;;3.72;2.63;;;11.70;99.90;;;;;;5073356;28;20040;-36
2023/08/11 04:40:50;;;;;;;3.80;2.40;;;11.70;99.90;;;;;;5077536;28;20036;-35
2023/08/11 04:43:16;;;;;;;3.30;2.55;;;11.70;99.90;;;;;;5081486;28;20032;-33
2023/08/11 04:45:42;;;;;;;2.92;2.65;;;11.80;99.90;;;;;;5081832;28;20024;-33
2023/08/11 04:48:07;;;;;;;8.30;3.35;;;11.90;99.90;;;;;;5085040;28;20478;-33
2023/08/11 04:50:33;;;;;;;3.30;2.85;;;11.90;99.90;;;;;;5070749;28;20035;-33
2023/08/11 04:52:59;;;;;;;2.60;2.40;;;11.90;99.90;;;;;;5084646;28;20040;-33
2023/08/11 04:55:24;;;;;;;4.00;2.70;;;12.00;99.90;;;;;;5086189;28;20070;-33
2023/08/11 04:57:50;;;;;;;5.32;3.00;;;12.10;99.90;;;;;;5082745;28;20045;-33
2023/08/11 05:00:16;;;;;;;4.22;2.53;;;12.20;99.90;;;;;;5076656;28;20032;-36
2023/08/11 05:02:43;;;;;;;6.20;2.80;;;12.30;99.90;;;;;;5076150;28;20565;-41
2023/08/11 05:05:10;;;;;;;6.85;3.63;;;12.30;99.90;;;;;;5087361;28;20075;-41
2023/08/11 05:07:36;;;;;;;3.58;2.60;;;12.40;99.90;;;;;;5080200;28;20043;-42
2023/08/11 05:10:01;;;;;;;4.72;2.78;;;12.50;99.90;;;;;;5082145;28;20419;-40
2023/08/11 05:12:27;;;;;;;5.30;3.10;;;12.60;99.90;;;;;;5080720;28;20036;-39
2023/08/11 05:14:53;;;;;;;2.60;2.38;;;12.60;99.90;;;;;;5081353;28;20610;-41
2023/08/11 05:17:18;;;;;;;3.95;2.63;;;12.60;99.90;;;;;;5080962;28;20043;-41
2023/08/11 05:19:44;;;;;;;3.60;2.50;;;12.70;99.90;;;;;;5079002;28;20059;-40
2023/08/11 05:22:10;;;;;;;3.55;2.55;;;12.80;99.90;;;;;;5082358;28;20103;-41
2023/08/11 05:24:36;;;;;;;4.93;2.67;;;13.00;99.90;;;;;;5082674;28;20035;-41
2023/08/11 05:27:03;;;;;;;4.53;2.97;;;13.00;99.90;;;;;;5079787;28;20474;-40
2023/08/11 05:29:28;;;;;;;4.53;3.22;;;13.10;99.90;;;;;;5080058;28;20483;-35
2023/08/11 05:31:54;;;;;;;5.80;2.97;;;13.20;99.90;;;;;;5077658;28;20033;-41
2023/08/11 05:34:19;;;;;;;5.20;3.13;;;13.40;99.90;;;;;;5082636;28;20411;-40
2023/08/11 05:36:45;;;;;;;4.70;3.22;;;13.50;99.90;;;;;;5080112;28;20516;-35
2023/08/11 05:39:12;;;;;;;6.95;3.63;;;13.60;99.90;;;;;;5085803;28;20024;-41
2023/08/11 05:41:38;;;;;;;5.10;3.30;;;13.70;99.90;;;;;;5081916;28;20024;-40
2023/08/11 05:44:04;;;;;;;5.43;3.65;;;13.70;99.90;;;;;;5083965;28;20385;-41
2023/08/11 05:46:31;;;;;;;4.50;3.28;;;13.70;99.90;;;;;;5080696;28;20045;-41
2023/08/11 05:48:56;;;;;;;3.83;3.10;;;13.90;99.90;;;;;;5081852;28;20474;-40
2023/08/11 05:51:22;;;;;;;5.78;3.53;;;13.90;99.90;;;;;;5086429;28;20085;-41
2023/08/11 05:53:48;;;;;;;4.78;3.38;;;13.90;99.90;;;;;;5085848;28;20028;-40
2023/08/11 05:56:15;;;;;;;3.90;3.45;;;14.10;99.90;;;;;;5081562;28;20131;-39
2023/08/11 05:58:40;;;;;;;5.03;4.00;;;14.20;99.90;;;;;;5088046;28;20103;-41
2023/08/11 06:01:06;;;;;;;5.30;3.70;;;14.30;99.90;;;;;;5084608;28;20170;-41
2023/08/11 06:03:32;;;;;;;8.70;4.32;;;14.50;99.90;;;;;;5079460;28;20070;-32
2023/08/11 06:06:07;;;;;;;3.80;3.40;;;14.70;99.90;;;;;;5087101;28;20473;-31
2023/08/11 06:08:32;;;;;;;4.63;3.90;;;14.70;99.90;;;;;;5080778;28;20067;-31
2023/08/11 06:10:58;;;;;;;5.88;3.97;;;14.80;99.90;;;;;;5082772;28;20091;-31
2023/08/11 06:13:24;;;;;;;5.57;4.13;;;14.80;99.90;;;;;;5080063;28;20032;-39
2023/08/11 06:15:50;;;;;;;5.60;4.30;;;14.90;99.90;;;;;;5083560;28;20131;-40
2023/08/11 06:18:16;;;;;;;4.95;4.18;;;15.00;99.90;;;;;;5084796;28;20035;-42
2023/08/11 06:20:42;;;;;;;5.97;4.07;;;15.20;99.90;;;;;;5083974;28;20720;-41
2023/08/11 06:23:08;;;;;;;5.10;4.13;;;15.40;99.90;;;;;;5082403;28;20024;-42
2023/08/11 06:25:34;;;;;;;5.22;4.00;;;15.50;99.90;;;;;;5082086;28;20055;-42
2023/08/11 06:28:00;;;;;;;6.15;4.47;;;15.60;99.90;;;;;;5074966;28;20028;-40
2023/08/11 06:30:28;;;;;;;4.82;4.30;;;15.70;99.90;;;;;;5081268;28;20028;-42
2023/08/11 06:32:53;;;;;;;7.13;4.53;;;15.90;99.90;;;;;;5076895;28;20524;-40
2023/08/11 06:35:19;;;;;;;5.50;4.40;;;16.10;99.90;;;;;;5065982;28;20032;-41
2023/08/11 06:37:45;;;;;;;4.80;4.30;;;16.30;99.90;;;;;;5062560;28;20578;-40
2023/08/11 06:40:11;;;;;;;5.05;4.22;;;16.40;99.90;;;;;;5084824;28;20378;-39
2023/08/11 06:42:38;;;;;;;6.90;4.32;;;16.50;99.90;;;;;;5076271;28;20039;-42
2023/08/11 06:45:04;;;;;;;6.53;4.28;;;16.60;99.90;;;;;;5081598;28;20036;-38
2023/08/11 06:47:31;;;;;;;5.47;4.10;;;16.80;99.90;;;;;;5080099;28;20028;-41
2023/08/11 06:49:57;;;;;;;7.30;4.53;;;17.10;99.90;;;;;;5086083;28;20032;-41
2023/08/11 06:52:23;;;;;;;5.88;4.60;;;17.20;99.90;;;;;;5083588;28;20123;-40
2023/08/11 06:54:48;;;;;;;6.63;4.05;;;17.40;99.90;;;;;;5081397;28;20118;-44
2023/08/11 06:57:14;;;;;;;5.68;4.20;;;17.30;99.90;;;;;;5081070;28;20488;-41
2023/08/11 06:59:40;;;;;;;6.05;4.32;;;17.50;99.90;;;;;;5084736;28;20035;-41
2023/08/11 07:02:06;;;;;;;7.05;4.50;;;17.60;99.90;;;;;;5082299;28;20032;-40
2023/08/11 07:04:31;;;;;;;9.70;4.53;;;17.80;99.90;;;;;;5081884;28;20082;-40
2023/08/11 07:06:57;;;;;;;5.15;4.22;;;17.90;99.90;;;;;;5080139;28;20028;-42
2023/08/11 07:09:24;;;;;;;5.70;4.60;;;18.10;99.90;;;;;;5079682;28;20069;-39
2023/08/11 07:11:49;;;;;;;5.15;4.30;;;18.30;99.90;;;;;;5078327;28;20036;-40
2023/08/11 07:14:15;;;;;;;8.25;4.78;;;18.40;99.90;;;;;;5082725;28;20077;-33
2023/08/11 07:16:41;;;;;;;4.90;4.40;;;18.50;99.90;;;;;;5080511;28;20032;-36
2023/08/11 07:19:06;;;;;;;5.00;4.25;;;18.70;99.90;;;;;;5081405;28;20039;-34
2023/08/11 07:21:32;;;;;;;5.20;4.10;;;18.80;99.90;;;;;;5083620;28;20063;-36
2023/08/11 07:23:57;;;;;;;4.75;3.97;;;18.90;99.90;;;;;;5079434;28;20028;-34
2023/08/11 07:26:23;;;;;;;5.00;3.92;;;19.00;99.90;;;;;;5082201;28;20699;-35
2023/08/11 07:28:49;;;;;;;4.22;3.80;;;19.10;99.90;;;;;;5082577;28;20105;-34
2023/08/11 07:31:14;;;;;;;3.88;3.55;;;19.50;99.90;;;;;;5082011;28;20043;-32
2023/08/11 07:33:42;;;;;;;4.20;3.80;;;19.70;99.90;;;;;;5082728;28;20382;-41
2023/08/11 07:36:08;;;;;;;4.90;3.80;;;20.00;99.90;;;;;;5083325;28;20024;-39
2023/08/11 07:38:33;;;;;;;6.28;4.22;;;19.90;99.90;;;;;;5083709;28;21616;-40
2023/08/11 07:40:59;;;;;;;6.45;3.90;;;20.00;99.90;;;;;;5081635;28;20064;-39
2023/08/11 07:43:25;;;;;;;5.68;3.80;;;20.00;99.90;;;;;;5084744;28;20034;-41
2023/08/11 07:45:50;;;;;;;5.00;3.53;;;20.30;99.90;;;;;;5085264;28;20032;-40
2023/08/11 07:48:18;;;;;;;6.72;3.70;;;20.60;99.90;;;;;;5083002;28;20107;-41
2023/08/11 07:50:44;;;;;;;4.53;3.97;;;20.70;99.90;;;;;;5085397;28;20081;-37
2023/08/11 07:53:10;;;;;;;4.60;3.42;;;20.70;99.90;;;;;;5084177;28;20024;-42
2023/08/11 07:55:36;;;;;;;4.07;3.67;;;20.90;99.90;;;;;;5083115;28;20576;-40
2023/08/11 07:58:02;;;;;;;6.28;3.97;;;20.80;99.90;;;;;;5080153;28;20062;-38
2023/08/11 08:00:28;;;;;;;4.88;3.30;;;20.90;99.90;;;;;;5080991;28;20442;-39
2023/08/11 08:02:54;;;;;;;3.65;3.33;;;21.20;99.90;;;;;;5076843;28;20070;-38
2023/08/11 08:05:20;;;;;;;4.10;3.70;;;21.60;99.90;;;;;;5082099;28;20397;-39
2023/08/11 08:07:46;;;;;;;5.65;3.60;;;21.50;99.90;;;;;;5081628;28;20103;-39
2023/08/11 08:10:14;;;;;;;4.18;3.15;;;21.80;99.90;;;;;;5081320;28;20629;-40
2023/08/11 08:12:42;;;;;;;6.07;4.10;;;22.00;99.90;;;;;;5083691;28;20103;-40
2023/08/11 08:15:10;;;;;;;5.80;3.67;;;22.10;99.90;;;;;;5077684;28;20036;-39
2023/08/11 08:17:36;;;;;;;5.28;3.50;;;22.00;99.90;;;;;;5079387;28;20028;-37
2023/08/11 08:20:04;;;;;;;5.70;4.10;;;22.10;99.90;;;;;;5085117;28;20115;-40
2023/08/11 08:22:30;;;;;;;5.85;3.10;;;22.10;99.90;;;;;;5084213;28;20149;-40
2023/08/11 08:24:56;;;;;;;4.75;3.75;;;22.60;99.90;;;;;;5082812;28;20122;-30
2023/08/11 08:27:24;;;;;;;5.32;3.72;;;22.40;99.90;;;;;;5068724;28;20032;-31
2023/08/11 08:29:53;;;;;;;3.67;3.28;;;22.30;99.90;;;;;;5090046;28;20033;-30
2023/08/11 08:32:22;;;;;;;3.80;3.40;;;22.30;99.90;;;;;;5084173;28;20102;-32
2023/08/11 08:34:48;;;;;;;4.40;3.47;;;22.40;99.90;;;;;;5087575;28;20513;-32
2023/08/11 08:37:17;;;;;;;4.18;3.42;;;22.70;99.90;;;;;;5085996;28;20036;-32
2023/08/11 08:39:43;;;;;;;4.10;3.25;;;23.20;99.90;;;;;;5086362;28;20052;-31
2023/08/11 08:42:11;;;;;;;3.75;3.35;;;23.40;99.90;;;;;;5087943;28;20020;-30
2023/08/11 08:44:37;;;;;;;4.45;3.20;;;23.60;99.90;;;;;;5085928;28;20028;-32
2023/08/11 08:47:06;;;;;;;4.47;3.60;;;23.50;99.90;;;;;;5082756;28;20027;-33
2023/08/11 08:49:36;;;;;;;4.28;3.85;;;23.40;99.90;;;;;;5083101;28;20090;-31
2023/08/11 08:52:02;;;;;;;4.72;3.88;;;23.50;99.90;;;;;;5088717;28;20066;-34
2023/08/11 08:54:28;;;;;;;5.78;3.75;;;23.10;99.90;;;;;;5085587;28;20217;-33
2023/08/11 08:56:54;;;;;;;4.38;3.50;;;23.20;99.90;;;;;;5073855;28;20024;-33
2023/08/11 08:59:21;;;;;;;3.78;3.47;;;23.40;99.90;;;;;;5088189;28;20036;-35
2023/08/11 09:01:48;;;;;;;4.03;3.67;;;23.50;99.90;;;;;;5087999;28;20032;-35
2023/08/11 09:04:15;;;;;;;4.90;3.10;;;23.80;99.90;;;;;;5085365;28;20385;-33
2023/08/11 09:06:41;;;;;;;4.05;3.65;;;24.40;99.90;;;;;;5086597;28;20381;-33
2023/08/11 09:09:09;;;;;;;4.40;3.50;;;24.70;99.90;;;;;;5085406;28;20035;-32
2023/08/11 09:11:34;;;;;;;4.80;3.38;;;24.30;99.90;;;;;;5082304;28;20423;-34
2023/08/11 09:14:04;;;;;;;3.70;3.30;;;24.50;99.90;;;;;;5086953;28;20121;-34
2023/08/11 09:16:33;;;;;;;3.97;3.30;;;24.70;99.90;;;;;;5090779;28;20053;-32
2023/08/11 09:18:58;;;;;;;4.68;3.10;;;24.80;99.90;;;;;;5087341;28;20233;-32
2023/08/11 09:21:27;;;;;;;3.85;3.10;;;24.70;99.90;;;;;;5083676;28;20028;-33
2023/08/11 09:23:54;;;;;;;3.35;3.05;;;24.40;99.90;;;;;;5084664;28;20318;-33
2023/08/11 09:26:24;;;;;;;3.83;3.10;;;24.30;99.90;;;;;;5087747;28;20036;-32
2023/08/11 09:28:50;;;;;;;2.88;2.67;;;24.30;99.90;;;;;;5080834;28;20032;-33
2023/08/11 09:31:25;;;;;;;2.45;2.20;;;24.40;99.90;;;;;;5085137;28;20028;-33
2023/08/11 09:33:52;;;;;;;3.25;2.85;;;24.60;99.90;;;;;;5086618;28;20036;-32
2023/08/11 09:36:19;;;;;;;3.75;2.85;;;24.60;99.90;;;;;;5085714;28;20119;-31
2023/08/11 09:38:45;;;;;;;3.15;2.60;;;24.70;99.90;;;;;;5080562;28;20423;-31
2023/08/11 09:41:12;;;;;;;3.25;2.90;;;25.00;99.90;;;;;;5066877;28;20032;-31
2023/08/11 09:43:38;;;;;;;4.00;2.67;;;25.40;99.90;;;;;;5068048;28;20480;-32
2023/08/11 09:46:03;;;;;;;3.33;2.80;;;25.70;99.90;;;;;;5082254;28;20032;-33
2023/08/11 09:48:29;;;;;;;2.80;2.58;;;26.00;99.90;;;;;;5084069;28;20051;-32
2023/08/11 09:50:57;;;;;;;3.42;2.88;;;26.40;99.90;;;;;;5085006;28;20039;-32
2023/08/11 09:53:23;;;;;;;2.33;2.00;;;26.30;99.90;;;;;;5083107;28;20036;-34
2023/08/11 09:55:50;;;;;;;2.25;2.05;;;26.00;99.90;;;;;;5090611;28;20449;-33
2023/08/11 09:58:17;;;;;;;3.10;2.60;;;26.00;99.90;;;;;;5084209;28;20103;-34
2023/08/11 10:00:45;;;;;;;2.72;2.28;;;26.30;99.90;;;;;;5086235;28;20181;-34
2023/08/11 10:03:16;;;;;;;2.50;2.15;;;26.60;99.90;;;;;;5084804;28;20035;-39
2023/08/11 10:05:43;;;;;;;3.70;2.67;;;26.90;99.90;;;;;;5086396;28;20109;-41
2023/08/11 10:08:18;;;;;;;3.13;2.78;;;27.30;99.90;;;;;;5084438;28;20031;-41
2023/08/11 10:10:44;;;;;;;4.50;2.67;;;27.60;99.90;;;;;;5085207;28;20031;-41
2023/08/11 10:13:21;;;;;;;2.85;2.55;;;27.40;99.90;;;;;;5084179;28;20032;-41
2023/08/11 10:15:48;;;;;;;3.50;2.55;;;27.30;99.90;;;;;;5078559;28;20511;-41
2023/08/11 10:18:16;;;;;;;2.75;2.55;;;26.70;99.90;;;;;;5081054;28;20036;-40
2023/08/11 10:20:42;;;;;;;2.92;2.65;;;26.30;99.90;;;;;;5081307;28;20030;-41
2023/08/11 10:23:08;;;;;;;3.33;3.03;;;26.60;99.90;;;;;;5084979;28;20035;-41
2023/08/11 10:25:35;;;;;;;4.03;3.17;;;26.80;99.90;;;;;;5084135;28;20035;-41
2023/08/11 10:28:01;;;;;;;3.80;2.95;;;27.00;99.90;;;;;;5066705;28;20126;-41
2023/08/11 10:30:27;;;;;;;4.00;3.00;;;27.00;99.90;;;;;;5084999;28;20061;-41
2023/08/11 10:33:03;;;;;;;2.88;2.40;;;26.80;99.90;;;;;;5082473;28;20040;-41
2023/08/11 10:35:36;;;;;;;4.07;2.80;;;26.40;99.90;;;;;;5083025;28;20044;-41
2023/08/11 10:38:03;;;;;;;3.30;3.00;;;26.30;99.90;;;;;;5083227;28;20064;-38
2023/08/11 10:40:38;;;;;;;2.85;2.58;;;26.60;99.90;;;;;;5082322;28;20020;-40
2023/08/11 10:43:06;;;;;;;4.25;2.35;;;27.20;99.90;;;;;;5083604;28;20024;-32
2023/08/11 10:45:33;;;;;;;3.10;2.80;;;27.70;99.90;;;;;;5090056;28;20040;-34
2023/08/11 10:48:05;;;;;;;3.42;2.92;;;28.10;99.90;;;;;;5086747;28;20055;-32
2023/08/11 10:50:31;;;;;;;2.70;2.40;;;27.80;99.90;;;;;;5083513;28;20036;-32
2023/08/11 10:53:19;;;;;;;2.80;2.60;;;27.40;99.90;;;;;;5083758;28;20057;-42
2023/08/11 10:56:01;;;;;;;4.07;2.70;;;27.20;99.90;;;;;;5085871;28;20047;-39
2023/08/11 10:58:29;;;;;;;4.13;2.50;;;27.30;99.90;;;;;;5085618;28;20485;-40
2023/08/11 11:00:56;;;;;;;3.20;2.63;;;27.30;99.90;;;;;;5080463;28;20028;-41
2023/08/11 11:03:22;;;;;;;2.83;2.60;;;27.10;99.90;;;;;;5079201;28;20028;-40
2023/08/11 11:05:48;;;;;;;3.05;2.60;;;27.60;99.90;;;;;;5081239;28;20036;-39
2023/08/11 11:08:13;;;;;;;3.75;3.00;;;27.40;99.90;;;;;;5081673;28;20024;-41
2023/08/11 11:10:41;;;;;;;2.90;2.60;;;27.90;99.90;;;;;;5083321;28;20035;-41
2023/08/11 11:13:07;;;;;;;2.72;2.53;;;28.00;99.90;;;;;;5084030;28;20036;-41
2023/08/11 11:15:33;;;;;;;4.43;2.20;;;28.40;99.90;;;;;;5082013;28;20036;-42
2023/08/11 11:17:59;;;;;;;2.58;2.10;;;28.80;99.90;;;;;;5082497;28;20032;-40
2023/08/11 11:20:25;;;;;;;2.95;2.50;;;28.90;99.90;;;;;;5081713;28;20016;-42
2023/08/11 11:22:51;;;;;;;2.53;2.25;;;28.10;99.90;;;;;;5080030;28;20024;-41
2023/08/11 11:25:18;;;;;;;2.88;2.42;;;28.20;99.90;;;;;;5081551;28;20032;-39
2023/08/11 11:27:44;;;;;;;3.83;2.28;;;28.30;99.90;;;;;;5085136;28;20633;-41
2023/08/11 11:30:11;;;;;;;3.25;2.30;;;28.50;99.90;;;;;;5082924;28;20044;-40
2023/08/11 11:32:38;;;;;;;3.10;2.30;;;28.50;99.90;;;;;;5080018;28;20040;-43
2023/08/11 11:35:07;;;;;;;2.05;1.92;;;28.90;99.90;;;;;;5080744;28;20039;-39
2023/08/11 11:37:33;;;;;;;2.17;1.73;;;29.50;99.90;;;;;;5084587;28;20443;-38
2023/08/11 11:40:03;;;;;;;2.70;2.00;;;29.40;99.90;;;;;;5082739;28;20028;-40
2023/08/11 11:42:29;;;;;;;2.30;2.00;;;29.60;99.90;;;;;;5079579;28;20029;-41
2023/08/11 11:44:56;;;;;;;5.00;2.30;;;29.80;99.90;;;;;;5076149;28;20500;-41
2023/08/11 11:47:22;;;;;;;2.40;1.92;;;29.80;99.90;;;;;;5080954;28;20077;-39
2023/08/11 11:49:58;;;;;;;2.13;2.03;;;28.80;99.90;;;;;;5079386;28;20541;-42
2023/08/11 11:52:24;;;;;;;2.00;1.90;;;28.50;99.90;;;;;;5081186;28;20025;-40
2023/08/11 11:54:54;;;;;;;2.22;2.00;;;28.60;99.90;;;;;;5083468;28;20120;-41
2023/08/11 11:57:23;;;;;;;2.45;2.15;;;28.90;99.90;;;;;;5081601;28;20040;-40
2023/08/11 11:59:50;;;;;;;2.20;1.85;;;29.10;99.90;;;;;;5083369;28;20056;-41
2023/08/11 12:02:17;;;;;;;2.65;2.22;;;29.50;99.90;;;;;;5083658;28;20604;-39
2023/08/11 12:04:43;;;;;;;2.25;2.05;;;29.50;99.90;;;;;;5083700;28;20563;-32
2023/08/11 12:07:09;;;;;;;2.00;1.80;;;29.00;99.90;;;;;;5081609;28;20124;-34
2023/08/11 12:09:51;;;;;;;1.85;1.75;;;28.60;99.90;;;;;;5078528;28;20029;-35
2023/08/11 12:12:17;;;;;;;2.00;1.90;;;28.20;99.90;;;;;;5082503;28;20473;-33
2023/08/11 12:14:42;;;;;;;1.85;1.75;;;27.90;99.90;;;;;;5084067;28;20034;-34
2023/08/11 12:17:08;;;;;;;1.55;1.45;;;27.70;99.90;;;;;;5082219;28;20028;-33
2023/08/11 12:19:34;;;;;;;1.77;1.67;;;27.70;99.90;;;;;;5082596;28;20032;-33
2023/08/11 12:22:00;;;;;;;2.53;1.65;;;27.60;99.90;;;;;;5084305;28;20036;-33
2023/08/11 12:24:26;;;;;;;1.97;1.83;;;27.60;99.90;;;;;;5084573;28;20378;-38
2023/08/11 12:26:52;;;;;;;2.10;1.90;;;27.50;99.90;;;;;;5085310;28;20276;-41
2023/08/11 12:29:17;;;;;;;1.60;1.50;;;27.70;99.90;;;;;;5075408;28;20028;-41
2023/08/11 12:31:43;;;;;;;2.47;1.85;;;28.00;99.90;;;;;;5080548;28;20119;-41
2023/08/11 12:34:08;;;;;;;1.73;1.58;;;28.40;99.90;;;;;;5080111;28;20496;-41
2023/08/11 12:36:34;;;;;;;3.10;1.65;;;28.80;99.90;;;;;;5083299;28;20032;-41
2023/08/11 12:38:59;;;;;;;1.80;1.65;;;29.20;99.90;;;;;;5065760;28;20062;-40
2023/08/11 12:41:25;;;;;;;2.83;1.60;;;29.60;99.90;;;;;;5077951;28;20035;-41
2023/08/11 12:43:50;;;;;;;1.63;1.52;;;29.40;99.90;;;;;;5081917;28;20381;-40
2023/08/11 12:46:16;;;;;;;1.98;1.50;;;29.60;99.90;;;;;;5076535;28;20020;-39